sensor_id;sensor_type;location;lat;lon;timestamp;temperature;humidity
13336;DHT22;6737;51.480;11.962;2022-09-09T00:04:41;15.20;99.90
13336;DHT22;6737;51.480;11.962;2022-09-09T00:07:21;15.20;99.90
13336;DHT22;6737;51.480;11.962;2022-09-09T00:15:14;15.10;99.90
13336;DHT22;6737;51.480;11.962;2022-09-09T00:18:24;15.10;99.90
13336;DHT22;6737;51.480;11.962;2022-09-09T00:21:10;15.10;99.90
13336;DHT22;6737;51.480;11.962;2022-09-09T00:23:45;15.20;99.90
13336;DHT22;6737;51.480;11.962;2022-09-09T00:26:38;15.20;99.90
13336;DHT22;6737;51.480;11.962;2022-09-09T00:29:34;15.20;99.90
13336;DHT22;6737;51.480;11.962;2022-09-09T00:32:15;15.20;99.90
13336;DHT22;6737;51.480;11.962;2022-09-09T00:34:52;15.20;99.90
13336;DHT22;6737;51.480;11.962;2022-09-09T00:37:21;15.20;99.90
13336;DHT22;6737;51.480;11.962;2022-09-09T00:39:48;15.10;99.90
13336;DHT22;6737;51.480;11.962;2022-09-09T00:42:24;15.10;99.90
13336;DHT22;6737;51.480;11.962;2022-09-09T00:47:52;15.10;99.90
13336;DHT22;6737;51.480;11.962;2022-09-09T00:56:13;15.10;99.90
13336;DHT22;6737;51.480;11.962;2022-09-09T00:58:43;15.20;99.90
13336;DHT22;6737;51.480;11.962;2022-09-09T01:01:11;15.20;99.90
13336;DHT22;6737;51.480;11.962;2022-09-09T01:03:53;15.10;99.90
13336;DHT22;6737;51.480;11.962;2022-09-09T01:06:33;15.10;99.90
13336;DHT22;6737;51.480;11.962;2022-09-09T01:09:18;15.00;99.90
13336;DHT22;6737;51.480;11.962;2022-09-09T01:12:11;15.00;99.90
13336;DHT22;6737;51.480;11.962;2022-09-09T01:14:49;15.10;99.90
13336;DHT22;6737;51.480;11.962;2022-09-09T01:20:24;15.00;99.90
13336;DHT22;6737;51.480;11.962;2022-09-09T01:26:42;15.00;99.90
13336;DHT22;6737;51.480;11.962;2022-09-09T01:28:36;14.90;99.90
13336;DHT22;6737;51.480;11.962;2022-09-09T01:31:06;14.90;99.90
13336;DHT22;6737;51.480;11.962;2022-09-09T01:33:34;14.90;99.90
13336;DHT22;6737;51.480;11.962;2022-09-09T01:36:08;14.90;99.90
13336;DHT22;6737;51.480;11.962;2022-09-09T01:38:36;14.90;99.90
13336;DHT22;6737;51.480;11.962;2022-09-09T01:41:03;14.90;99.90
13336;DHT22;6737;51.480;11.962;2022-09-09T01:43:29;15.00;99.90
13336;DHT22;6737;51.480;11.962;2022-09-09T01:45:58;15.00;99.90
13336;DHT22;6737;51.480;11.962;2022-09-09T01:48:25;15.00;99.90
13336;DHT22;6737;51.480;11.962;2022-09-09T01:50:51;15.00;99.90
13336;DHT22;6737;51.480;11.962;2022-09-09T01:53:18;14.90;99.90
13336;DHT22;6737;51.480;11.962;2022-09-09T01:58:51;14.90;99.90
13336;DHT22;6737;51.480;11.962;2022-09-09T02:01:38;14.90;99.90
13336;DHT22;6737;51.480;11.962;2022-09-09T02:04:23;14.80;99.90
13336;DHT22;6737;51.480;11.962;2022-09-09T02:06:55;14.80;99.90
13336;DHT22;6737;51.480;11.962;2022-09-09T02:09:24;14.80;99.90
13336;DHT22;6737;51.480;11.962;2022-09-09T02:11:59;14.80;99.90
13336;DHT22;6737;51.480;11.962;2022-09-09T02:14:30;14.80;99.90
13336;DHT22;6737;51.480;11.962;2022-09-09T02:17:26;14.80;99.90
13336;DHT22;6737;51.480;11.962;2022-09-09T02:19:56;14.80;99.90
13336;DHT22;6737;51.480;11.962;2022-09-09T02:22:24;14.80;99.90
13336;DHT22;6737;51.480;11.962;2022-09-09T02:24:53;14.80;99.90
13336;DHT22;6737;51.480;11.962;2022-09-09T02:27:22;14.90;99.90
13336;DHT22;6737;51.480;11.962;2022-09-09T02:29:50;14.90;99.90
13336;DHT22;6737;51.480;11.962;2022-09-09T02:32:22;14.90;99.90
13336;DHT22;6737;51.480;11.962;2022-09-09T02:34:55;14.90;99.90
13336;DHT22;6737;51.480;11.962;2022-09-09T02:37:26;14.90;99.90
13336;DHT22;6737;51.480;11.962;2022-09-09T02:39:55;14.90;99.90
13336;DHT22;6737;51.480;11.962;2022-09-09T02:42:21;14.90;99.90
13336;DHT22;6737;51.480;11.962;2022-09-09T02:44:47;14.90;99.90
13336;DHT22;6737;51.480;11.962;2022-09-09T02:50:37;14.80;99.90
13336;DHT22;6737;51.480;11.962;2022-09-09T02:53:18;14.80;99.90
13336;DHT22;6737;51.480;11.962;2022-09-09T02:55:47;14.80;99.90
13336;DHT22;6737;51.480;11.962;2022-09-09T02:58:16;14.80;99.90
13336;DHT22;6737;51.480;11.962;2022-09-09T03:00:45;14.90;99.90
13336;DHT22;6737;51.480;11.962;2022-09-09T03:03:12;14.90;99.90
13336;DHT22;6737;51.480;11.962;2022-09-09T03:05:38;14.90;99.90
13336;DHT22;6737;51.480;11.962;2022-09-09T03:08:05;15.00;99.90
13336;DHT22;6737;51.480;11.962;2022-09-09T03:10:32;14.90;99.90
13336;DHT22;6737;51.480;11.962;2022-09-09T03:12:59;14.90;99.90
13336;DHT22;6737;51.480;11.962;2022-09-09T03:15:24;14.90;99.90
13336;DHT22;6737;51.480;11.962;2022-09-09T03:17:56;14.80;99.90
13336;DHT22;6737;51.480;11.962;2022-09-09T03:20:27;14.90;99.90
13336;DHT22;6737;51.480;11.962;2022-09-09T03:22:53;14.90;99.90
13336;DHT22;6737;51.480;11.962;2022-09-09T03:25:20;14.90;99.90
13336;DHT22;6737;51.480;11.962;2022-09-09T03:27:49;14.90;99.90
13336;DHT22;6737;51.480;11.962;2022-09-09T03:30:15;15.00;99.90
13336;DHT22;6737;51.480;11.962;2022-09-09T03:32:41;15.00;99.90
13336;DHT22;6737;51.480;11.962;2022-09-09T03:35:07;15.00;99.90
13336;DHT22;6737;51.480;11.962;2022-09-09T03:37:34;15.00;99.90
13336;DHT22;6737;51.480;11.962;2022-09-09T03:39:59;15.00;99.90
13336;DHT22;6737;51.480;11.962;2022-09-09T03:42:25;15.00;99.90
13336;DHT22;6737;51.480;11.962;2022-09-09T03:44:51;14.90;99.90
13336;DHT22;6737;51.480;11.962;2022-09-09T03:47:18;14.80;99.90
13336;DHT22;6737;51.480;11.962;2022-09-09T03:49:45;14.80;99.90
13336;DHT22;6737;51.480;11.962;2022-09-09T03:52:11;14.80;99.90
13336;DHT22;6737;51.480;11.962;2022-09-09T03:54:36;14.80;99.90
13336;DHT22;6737;51.480;11.962;2022-09-09T03:57:03;14.80;99.90
13336;DHT22;6737;51.480;11.962;2022-09-09T03:59:30;14.80;99.90
13336;DHT22;6737;51.480;11.962;2022-09-09T04:01:56;14.80;99.90
13336;DHT22;6737;51.480;11.962;2022-09-09T04:04:24;14.80;99.90
13336;DHT22;6737;51.480;11.962;2022-09-09T04:06:52;14.80;99.90
13336;DHT22;6737;51.480;11.962;2022-09-09T04:09:18;14.80;99.90
13336;DHT22;6737;51.480;11.962;2022-09-09T04:11:44;14.80;99.90
13336;DHT22;6737;51.480;11.962;2022-09-09T04:14:11;14.80;99.90
13336;DHT22;6737;51.480;11.962;2022-09-09T04:16:38;14.80;99.90
13336;DHT22;6737;51.480;11.962;2022-09-09T04:19:05;14.80;99.90
13336;DHT22;6737;51.480;11.962;2022-09-09T04:21:32;14.80;99.90
13336;DHT22;6737;51.480;11.962;2022-09-09T04:23:58;14.80;99.90
13336;DHT22;6737;51.480;11.962;2022-09-09T04:26:23;14.90;99.90
13336;DHT22;6737;51.480;11.962;2022-09-09T04:28:49;14.90;99.90
13336;DHT22;6737;51.480;11.962;2022-09-09T04:31:21;14.90;99.90
13336;DHT22;6737;51.480;11.962;2022-09-09T04:33:49;14.90;99.90
13336;DHT22;6737;51.480;11.962;2022-09-09T04:36:16;15.00;99.90
13336;DHT22;6737;51.480;11.962;2022-09-09T04:38:41;15.00;99.90
13336;DHT22;6737;51.480;11.962;2022-09-09T04:41:07;15.00;99.90
13336;DHT22;6737;51.480;11.962;2022-09-09T04:43:34;15.00;99.90
13336;DHT22;6737;51.480;11.962;2022-09-09T04:46:00;15.00;99.90
13336;DHT22;6737;51.480;11.962;2022-09-09T04:48:25;15.00;99.90
13336;DHT22;6737;51.480;11.962;2022-09-09T04:50:58;15.10;99.90
13336;DHT22;6737;51.480;11.962;2022-09-09T04:53:25;15.10;99.90
13336;DHT22;6737;51.480;11.962;2022-09-09T04:56:00;15.10;99.90
13336;DHT22;6737;51.480;11.962;2022-09-09T04:58:26;15.10;99.90
13336;DHT22;6737;51.480;11.962;2022-09-09T05:00:52;15.10;99.90
13336;DHT22;6737;51.480;11.962;2022-09-09T05:03:18;15.10;99.90
13336;DHT22;6737;51.480;11.962;2022-09-09T05:05:44;15.10;99.90
13336;DHT22;6737;51.480;11.962;2022-09-09T05:08:10;15.10;99.90
13336;DHT22;6737;51.480;11.962;2022-09-09T05:10:38;15.10;99.90
13336;DHT22;6737;51.480;11.962;2022-09-09T05:13:04;15.10;99.90
13336;DHT22;6737;51.480;11.962;2022-09-09T05:15:30;15.20;99.90
13336;DHT22;6737;51.480;11.962;2022-09-09T05:18:00;15.20;99.90
13336;DHT22;6737;51.480;11.962;2022-09-09T05:20:28;15.20;99.90
13336;DHT22;6737;51.480;11.962;2022-09-09T05:22:55;15.20;99.90
13336;DHT22;6737;51.480;11.962;2022-09-09T05:25:22;15.20;99.90
13336;DHT22;6737;51.480;11.962;2022-09-09T05:27:51;15.30;99.90
13336;DHT22;6737;51.480;11.962;2022-09-09T05:30:20;15.30;99.90
13336;DHT22;6737;51.480;11.962;2022-09-09T05:32:46;15.30;99.90
13336;DHT22;6737;51.480;11.962;2022-09-09T05:35:13;15.20;99.90
13336;DHT22;6737;51.480;11.962;2022-09-09T05:37:39;15.30;99.90
13336;DHT22;6737;51.480;11.962;2022-09-09T05:40:05;15.30;99.90
13336;DHT22;6737;51.480;11.962;2022-09-09T05:42:32;15.30;99.90
13336;DHT22;6737;51.480;11.962;2022-09-09T05:44:58;15.40;99.90
13336;DHT22;6737;51.480;11.962;2022-09-09T05:47:24;15.40;99.90
13336;DHT22;6737;51.480;11.962;2022-09-09T05:49:50;15.40;99.90
13336;DHT22;6737;51.480;11.962;2022-09-09T05:52:16;15.40;99.90
13336;DHT22;6737;51.480;11.962;2022-09-09T05:54:41;15.40;99.90
13336;DHT22;6737;51.480;11.962;2022-09-09T05:57:08;15.40;99.90
13336;DHT22;6737;51.480;11.962;2022-09-09T05:59:34;15.40;99.90
13336;DHT22;6737;51.480;11.962;2022-09-09T06:02:00;15.50;99.90
13336;DHT22;6737;51.480;11.962;2022-09-09T06:04:26;15.50;99.90
13336;DHT22;6737;51.480;11.962;2022-09-09T06:06:51;15.50;99.90
13336;DHT22;6737;51.480;11.962;2022-09-09T06:09:17;15.50;99.90
13336;DHT22;6737;51.480;11.962;2022-09-09T06:11:43;15.50;99.90
13336;DHT22;6737;51.480;11.962;2022-09-09T06:14:09;15.50;99.90
13336;DHT22;6737;51.480;11.962;2022-09-09T06:16:35;15.60;99.90
13336;DHT22;6737;51.480;11.962;2022-09-09T06:19:03;15.60;99.90
13336;DHT22;6737;51.480;11.962;2022-09-09T06:21:31;15.60;99.90
13336;DHT22;6737;51.480;11.962;2022-09-09T06:23:58;15.60;99.90
13336;DHT22;6737;51.480;11.962;2022-09-09T06:26:32;15.60;99.90
13336;DHT22;6737;51.480;11.962;2022-09-09T06:29:01;15.70;99.90
13336;DHT22;6737;51.480;11.962;2022-09-09T06:31:31;15.70;99.90
13336;DHT22;6737;51.480;11.962;2022-09-09T06:34:00;15.70;99.90
13336;DHT22;6737;51.480;11.962;2022-09-09T06:36:35;15.70;99.90
13336;DHT22;6737;51.480;11.962;2022-09-09T06:39:02;15.80;99.90
13336;DHT22;6737;51.480;11.962;2022-09-09T06:41:30;15.80;99.90
13336;DHT22;6737;51.480;11.962;2022-09-09T06:43:57;15.90;99.90
13336;DHT22;6737;51.480;11.962;2022-09-09T06:46:28;15.90;99.90
13336;DHT22;6737;51.480;11.962;2022-09-09T06:48:56;15.90;99.90
13336;DHT22;6737;51.480;11.962;2022-09-09T06:51:29;16.00;99.90
13336;DHT22;6737;51.480;11.962;2022-09-09T06:53:58;16.00;99.90
13336;DHT22;6737;51.480;11.962;2022-09-09T06:56:30;16.10;99.90
13336;DHT22;6737;51.480;11.962;2022-09-09T06:59:01;16.20;99.90
13336;DHT22;6737;51.480;11.962;2022-09-09T07:01:30;16.30;99.90
13336;DHT22;6737;51.480;11.962;2022-09-09T07:03:58;16.30;99.90
13336;DHT22;6737;51.480;11.962;2022-09-09T07:06:29;16.40;99.90
13336;DHT22;6737;51.480;11.962;2022-09-09T07:08:58;16.50;99.90
13336;DHT22;6737;51.480;11.962;2022-09-09T07:11:29;16.60;99.90
13336;DHT22;6737;51.480;11.962;2022-09-09T07:13:57;16.80;99.90
13336;DHT22;6737;51.480;11.962;2022-09-09T07:16:25;16.80;99.90
13336;DHT22;6737;51.480;11.962;2022-09-09T07:18:52;16.80;99.90
13336;DHT22;6737;51.480;11.962;2022-09-09T07:21:18;16.90;99.90
13336;DHT22;6737;51.480;11.962;2022-09-09T07:23:46;16.90;99.90
13336;DHT22;6737;51.480;11.962;2022-09-09T07:26:20;16.90;99.90
13336;DHT22;6737;51.480;11.962;2022-09-09T07:28:47;16.90;99.90
13336;DHT22;6737;51.480;11.962;2022-09-09T07:31:19;16.90;99.90
13336;DHT22;6737;51.480;11.962;2022-09-09T07:33:46;17.00;99.90
13336;DHT22;6737;51.480;11.962;2022-09-09T07:36:14;17.10;99.90
13336;DHT22;6737;51.480;11.962;2022-09-09T07:38:45;17.10;99.90
13336;DHT22;6737;51.480;11.962;2022-09-09T07:41:18;17.20;99.90
13336;DHT22;6737;51.480;11.962;2022-09-09T07:43:46;17.30;99.90
13336;DHT22;6737;51.480;11.962;2022-09-09T07:46:14;17.40;99.90
13336;DHT22;6737;51.480;11.962;2022-09-09T07:48:54;17.40;99.90
13336;DHT22;6737;51.480;11.962;2022-09-09T07:51:23;17.50;99.90
13336;DHT22;6737;51.480;11.962;2022-09-09T07:53:56;17.60;99.90
13336;DHT22;6737;51.480;11.962;2022-09-09T07:56:25;17.70;99.90
13336;DHT22;6737;51.480;11.962;2022-09-09T07:58:53;17.80;99.90
13336;DHT22;6737;51.480;11.962;2022-09-09T08:01:25;17.70;99.90
13336;DHT22;6737;51.480;11.962;2022-09-09T08:03:57;17.70;99.90
13336;DHT22;6737;51.480;11.962;2022-09-09T08:06:28;17.80;99.90
13336;DHT22;6737;51.480;11.962;2022-09-09T08:08:55;17.90;99.90
13336;DHT22;6737;51.480;11.962;2022-09-09T08:11:23;17.90;99.90
13336;DHT22;6737;51.480;11.962;2022-09-09T08:13:50;18.00;99.90
13336;DHT22;6737;51.480;11.962;2022-09-09T08:16:22;18.00;99.90
13336;DHT22;6737;51.480;11.962;2022-09-09T08:18:52;18.10;99.90
13336;DHT22;6737;51.480;11.962;2022-09-09T08:21:24;18.20;99.90
13336;DHT22;6737;51.480;11.962;2022-09-09T08:23:53;18.30;99.90
13336;DHT22;6737;51.480;11.962;2022-09-09T08:26:26;18.30;99.90
13336;DHT22;6737;51.480;11.962;2022-09-09T08:28:55;18.30;99.90
13336;DHT22;6737;51.480;11.962;2022-09-09T08:31:27;18.40;99.90
13336;DHT22;6737;51.480;11.962;2022-09-09T08:33:54;18.50;99.90
13336;DHT22;6737;51.480;11.962;2022-09-09T08:36:23;18.50;99.90
13336;DHT22;6737;51.480;11.962;2022-09-09T08:38:53;18.60;99.90
13336;DHT22;6737;51.480;11.962;2022-09-09T08:43:50;18.70;99.90
13336;DHT22;6737;51.480;11.962;2022-09-09T08:46:27;18.70;99.90
13336;DHT22;6737;51.480;11.962;2022-09-09T08:49:13;18.70;99.90
13336;DHT22;6737;51.480;11.962;2022-09-09T08:51:42;18.90;99.90
13336;DHT22;6737;51.480;11.962;2022-09-09T08:54:09;18.90;99.90
13336;DHT22;6737;51.480;11.962;2022-09-09T08:56:36;19.00;99.90
13336;DHT22;6737;51.480;11.962;2022-09-09T08:59:02;19.00;99.90
13336;DHT22;6737;51.480;11.962;2022-09-09T09:04:37;19.20;99.90
13336;DHT22;6737;51.480;11.962;2022-09-09T09:12:41;19.40;99.90
13336;DHT22;6737;51.480;11.962;2022-09-09T09:15:20;19.50;99.90
13336;DHT22;6737;51.480;11.962;2022-09-09T09:17:47;19.60;99.90
13336;DHT22;6737;51.480;11.962;2022-09-09T09:20:15;19.60;99.90
13336;DHT22;6737;51.480;11.962;2022-09-09T09:22:50;19.70;99.90
13336;DHT22;6737;51.480;11.962;2022-09-09T09:25:39;19.70;99.90
13336;DHT22;6737;51.480;11.962;2022-09-09T09:28:33;19.70;99.90
13336;DHT22;6737;51.480;11.962;2022-09-09T09:31:11;19.70;99.90
13336;DHT22;6737;51.480;11.962;2022-09-09T09:36:09;20.00;99.90
13336;DHT22;6737;51.480;11.962;2022-09-09T09:38:36;20.00;99.90
13336;DHT22;6737;51.480;11.962;2022-09-09T09:41:03;20.00;99.90
13336;DHT22;6737;51.480;11.962;2022-09-09T09:43:34;20.20;99.90
13336;DHT22;6737;51.480;11.962;2022-09-09T09:46:04;20.30;99.90
13336;DHT22;6737;51.480;11.962;2022-09-09T09:48:30;20.40;99.90
13336;DHT22;6737;51.480;11.962;2022-09-09T09:51:08;20.50;99.90
13336;DHT22;6737;51.480;11.962;2022-09-09T09:53:37;20.50;99.90
13336;DHT22;6737;51.480;11.962;2022-09-09T09:56:10;20.50;99.90
13336;DHT22;6737;51.480;11.962;2022-09-09T10:01:24;20.20;99.90
13336;DHT22;6737;51.480;11.962;2022-09-09T10:04:20;20.10;99.90
13336;DHT22;6737;51.480;11.962;2022-09-09T10:06:47;20.00;99.90
13336;DHT22;6737;51.480;11.962;2022-09-09T10:09:30;19.90;99.90
13336;DHT22;6737;51.480;11.962;2022-09-09T10:17:18;20.00;99.90
13336;DHT22;6737;51.480;11.962;2022-09-09T10:20:16;20.20;99.90
13336;DHT22;6737;51.480;11.962;2022-09-09T10:22:49;20.30;99.90
13336;DHT22;6737;51.480;11.962;2022-09-09T10:36:27;20.40;99.90
13336;DHT22;6737;51.480;11.962;2022-09-09T10:39:03;20.30;99.90
13336;DHT22;6737;51.480;11.962;2022-09-09T10:47:26;19.80;99.90
13336;DHT22;6737;51.480;11.962;2022-09-09T10:55:33;19.40;99.90
13336;DHT22;6737;51.480;11.962;2022-09-09T10:58:03;19.30;99.90
13336;DHT22;6737;51.480;11.962;2022-09-09T11:00:42;19.10;99.90
13336;DHT22;6737;51.480;11.962;2022-09-09T11:03:29;19.00;99.90
13336;DHT22;6737;51.480;11.962;2022-09-09T11:06:06;18.90;99.90
13336;DHT22;6737;51.480;11.962;2022-09-09T11:08:38;18.90;99.90
13336;DHT22;6737;51.480;11.962;2022-09-09T11:11:14;18.90;99.90
13336;DHT22;6737;51.480;11.962;2022-09-09T11:13:45;19.10;99.90
13336;DHT22;6737;51.480;11.962;2022-09-09T11:16:39;19.20;99.90
13336;DHT22;6737;51.480;11.962;2022-09-09T11:22:00;19.50;99.90
13336;DHT22;6737;51.480;11.962;2022-09-09T11:24:43;19.60;99.90
13336;DHT22;6737;51.480;11.962;2022-09-09T11:30:22;19.90;99.90
13336;DHT22;6737;51.480;11.962;2022-09-09T11:33:00;20.00;99.90
13336;DHT22;6737;51.480;11.962;2022-09-09T11:41:08;20.40;99.90
13336;DHT22;6737;51.480;11.962;2022-09-09T11:46:07;20.60;99.90
13336;DHT22;6737;51.480;11.962;2022-09-09T11:48:42;20.80;99.90
13336;DHT22;6737;51.480;11.962;2022-09-09T11:54:00;20.90;99.90
13336;DHT22;6737;51.480;11.962;2022-09-09T11:56:33;21.00;99.90
13336;DHT22;6737;51.480;11.962;2022-09-09T11:59:03;21.00;99.90
13336;DHT22;6737;51.480;11.962;2022-09-09T12:01:36;21.10;99.90
13336;DHT22;6737;51.480;11.962;2022-09-09T12:06:53;21.20;99.90
13336;DHT22;6737;51.480;11.962;2022-09-09T12:14:58;21.20;99.90
13336;DHT22;6737;51.480;11.962;2022-09-09T12:17:24;21.20;99.90
13336;DHT22;6737;51.480;11.962;2022-09-09T12:20:11;21.20;99.90
13336;DHT22;6737;51.480;11.962;2022-09-09T12:25:37;21.10;99.90
13336;DHT22;6737;51.480;11.962;2022-09-09T12:31:21;21.00;99.90
13336;DHT22;6737;51.480;11.962;2022-09-09T12:33:48;21.00;99.90
13336;DHT22;6737;51.480;11.962;2022-09-09T12:36:34;20.90;99.90
13336;DHT22;6737;51.480;11.962;2022-09-09T12:39:18;20.80;99.90
13336;DHT22;6737;51.480;11.962;2022-09-09T12:41:53;20.70;99.90
13336;DHT22;6737;51.480;11.962;2022-09-09T12:44:25;20.70;99.90
13336;DHT22;6737;51.480;11.962;2022-09-09T12:46:54;20.70;99.90
13336;DHT22;6737;51.480;11.962;2022-09-09T12:49:34;20.70;99.90
13336;DHT22;6737;51.480;11.962;2022-09-09T12:52:06;20.70;99.90
13336;DHT22;6737;51.480;11.962;2022-09-09T12:54:35;20.80;99.90
13336;DHT22;6737;51.480;11.962;2022-09-09T12:57:02;20.70;99.90
13336;DHT22;6737;51.480;11.962;2022-09-09T12:59:37;20.70;99.90
13336;DHT22;6737;51.480;11.962;2022-09-09T13:02:44;20.60;99.90
13336;DHT22;6737;51.480;11.962;2022-09-09T13:05:16;20.60;99.90
13336;DHT22;6737;51.480;11.962;2022-09-09T13:07:42;20.60;99.90
13336;DHT22;6737;51.480;11.962;2022-09-09T13:10:13;20.70;99.90
13336;DHT22;6737;51.480;11.962;2022-09-09T13:12:40;20.70;99.90
13336;DHT22;6737;51.480;11.962;2022-09-09T13:15:35;20.70;99.90
13336;DHT22;6737;51.480;11.962;2022-09-09T13:18:05;20.80;99.90
13336;DHT22;6737;51.480;11.962;2022-09-09T13:20:32;20.80;99.90
13336;DHT22;6737;51.480;11.962;2022-09-09T13:22:58;20.80;99.90
13336;DHT22;6737;51.480;11.962;2022-09-09T13:25:26;20.80;99.90
13336;DHT22;6737;51.480;11.962;2022-09-09T13:28:20;20.80;99.90
13336;DHT22;6737;51.480;11.962;2022-09-09T13:30:57;20.70;99.90
13336;DHT22;6737;51.480;11.962;2022-09-09T13:36:01;20.80;99.90
13336;DHT22;6737;51.480;11.962;2022-09-09T13:38:31;20.80;99.90
13336;DHT22;6737;51.480;11.962;2022-09-09T13:41:06;21.00;99.90
13336;DHT22;6737;51.480;11.962;2022-09-09T13:43:44;21.00;99.90
13336;DHT22;6737;51.480;11.962;2022-09-09T13:46:40;21.00;99.90
13336;DHT22;6737;51.480;11.962;2022-09-09T13:51:38;20.80;99.90
13336;DHT22;6737;51.480;11.962;2022-09-09T13:54:05;20.70;99.90
13336;DHT22;6737;51.480;11.962;2022-09-09T13:56:36;20.60;99.90
13336;DHT22;6737;51.480;11.962;2022-09-09T13:59:04;20.50;99.90
13336;DHT22;6737;51.480;11.962;2022-09-09T14:01:30;20.50;99.90
13336;DHT22;6737;51.480;11.962;2022-09-09T14:03:57;20.50;99.90
13336;DHT22;6737;51.480;11.962;2022-09-09T14:06:23;20.50;99.90
13336;DHT22;6737;51.480;11.962;2022-09-09T14:08:50;20.60;99.90
13336;DHT22;6737;51.480;11.962;2022-09-09T14:11:17;20.70;99.90
13336;DHT22;6737;51.480;11.962;2022-09-09T14:13:43;20.80;99.90
13336;DHT22;6737;51.480;11.962;2022-09-09T14:16:09;20.90;99.90
13336;DHT22;6737;51.480;11.962;2022-09-09T14:18:35;20.90;99.90
13336;DHT22;6737;51.480;11.962;2022-09-09T14:21:03;21.00;99.90
13336;DHT22;6737;51.480;11.962;2022-09-09T14:23:28;21.00;99.90
13336;DHT22;6737;51.480;11.962;2022-09-09T14:25:55;21.10;99.90
13336;DHT22;6737;51.480;11.962;2022-09-09T14:28:21;21.10;99.90
13336;DHT22;6737;51.480;11.962;2022-09-09T14:30:47;21.00;99.90
13336;DHT22;6737;51.480;11.962;2022-09-09T14:33:15;21.10;99.90
13336;DHT22;6737;51.480;11.962;2022-09-09T14:35:42;21.10;99.90
13336;DHT22;6737;51.480;11.962;2022-09-09T14:38:08;21.10;99.90
13336;DHT22;6737;51.480;11.962;2022-09-09T14:40:36;21.00;99.90
13336;DHT22;6737;51.480;11.962;2022-09-09T14:43:03;21.10;99.90
13336;DHT22;6737;51.480;11.962;2022-09-09T14:45:29;21.10;99.90
13336;DHT22;6737;51.480;11.962;2022-09-09T14:47:55;21.10;99.90
13336;DHT22;6737;51.480;11.962;2022-09-09T14:50:22;21.00;99.90
13336;DHT22;6737;51.480;11.962;2022-09-09T14:52:48;20.90;99.90
13336;DHT22;6737;51.480;11.962;2022-09-09T14:55:14;21.00;99.90
13336;DHT22;6737;51.480;11.962;2022-09-09T14:57:41;21.00;99.90
13336;DHT22;6737;51.480;11.962;2022-09-09T15:00:09;20.90;99.90
13336;DHT22;6737;51.480;11.962;2022-09-09T15:02:36;20.90;99.90
13336;DHT22;6737;51.480;11.962;2022-09-09T15:05:02;20.90;99.90
13336;DHT22;6737;51.480;11.962;2022-09-09T15:07:28;20.90;99.90
13336;DHT22;6737;51.480;11.962;2022-09-09T15:09:54;20.80;99.90
13336;DHT22;6737;51.480;11.962;2022-09-09T15:12:21;20.70;99.90
13336;DHT22;6737;51.480;11.962;2022-09-09T15:14:47;20.70;99.90
13336;DHT22;6737;51.480;11.962;2022-09-09T15:17:14;20.60;99.90
13336;DHT22;6737;51.480;11.962;2022-09-09T15:19:39;20.60;99.90
13336;DHT22;6737;51.480;11.962;2022-09-09T15:22:05;20.60;99.90
13336;DHT22;6737;51.480;11.962;2022-09-09T15:24:32;20.60;99.90
13336;DHT22;6737;51.480;11.962;2022-09-09T15:26:58;20.60;99.90
13336;DHT22;6737;51.480;11.962;2022-09-09T15:29:25;20.80;99.90
13336;DHT22;6737;51.480;11.962;2022-09-09T15:31:53;20.80;99.90
13336;DHT22;6737;51.480;11.962;2022-09-09T15:34:19;20.90;99.90
13336;DHT22;6737;51.480;11.962;2022-09-09T15:36:45;20.90;99.90
13336;DHT22;6737;51.480;11.962;2022-09-09T15:39:16;20.90;99.90
13336;DHT22;6737;51.480;11.962;2022-09-09T15:41:46;20.90;99.90
13336;DHT22;6737;51.480;11.962;2022-09-09T15:44:14;20.90;99.90
13336;DHT22;6737;51.480;11.962;2022-09-09T15:46:46;20.90;99.90
13336;DHT22;6737;51.480;11.962;2022-09-09T15:49:19;20.90;99.90
13336;DHT22;6737;51.480;11.962;2022-09-09T15:51:55;20.90;99.90
13336;DHT22;6737;51.480;11.962;2022-09-09T15:54:24;20.90;99.90
13336;DHT22;6737;51.480;11.962;2022-09-09T15:56:56;20.90;99.90
13336;DHT22;6737;51.480;11.962;2022-09-09T15:59:27;21.00;99.90
13336;DHT22;6737;51.480;11.962;2022-09-09T16:01:56;20.90;99.90
13336;DHT22;6737;51.480;11.962;2022-09-09T16:04:23;20.90;99.90
13336;DHT22;6737;51.480;11.962;2022-09-09T16:07:01;20.90;99.90
13336;DHT22;6737;51.480;11.962;2022-09-09T16:09:28;20.90;99.90
13336;DHT22;6737;51.480;11.962;2022-09-09T16:11:58;20.70;99.90
13336;DHT22;6737;51.480;11.962;2022-09-09T16:14:24;20.60;99.90
13336;DHT22;6737;51.480;11.962;2022-09-09T16:16:51;20.50;99.90
13336;DHT22;6737;51.480;11.962;2022-09-09T16:19:18;20.50;99.90
13336;DHT22;6737;51.480;11.962;2022-09-09T16:21:48;20.50;99.90
13336;DHT22;6737;51.480;11.962;2022-09-09T16:24:17;20.40;99.90
13336;DHT22;6737;51.480;11.962;2022-09-09T16:26:47;20.40;99.90
13336;DHT22;6737;51.480;11.962;2022-09-09T16:29:15;20.30;99.90
13336;DHT22;6737;51.480;11.962;2022-09-09T16:31:43;20.30;99.90
13336;DHT22;6737;51.480;11.962;2022-09-09T16:34:09;20.20;99.90
13336;DHT22;6737;51.480;11.962;2022-09-09T16:36:37;20.10;99.90
13336;DHT22;6737;51.480;11.962;2022-09-09T16:39:10;20.00;99.90
13336;DHT22;6737;51.480;11.962;2022-09-09T16:41:38;20.00;99.90
13336;DHT22;6737;51.480;11.962;2022-09-09T16:44:06;19.90;99.90
13336;DHT22;6737;51.480;11.962;2022-09-09T16:46:39;19.80;99.90
13336;DHT22;6737;51.480;11.962;2022-09-09T16:49:10;19.80;99.90
13336;DHT22;6737;51.480;11.962;2022-09-09T16:51:38;19.70;99.90
13336;DHT22;6737;51.480;11.962;2022-09-09T16:54:07;19.70;99.90
13336;DHT22;6737;51.480;11.962;2022-09-09T16:56:35;19.60;99.90
13336;DHT22;6737;51.480;11.962;2022-09-09T16:59:15;19.60;99.90
13336;DHT22;6737;51.480;11.962;2022-09-09T17:01:43;19.60;99.90
13336;DHT22;6737;51.480;11.962;2022-09-09T17:04:14;19.60;99.90
13336;DHT22;6737;51.480;11.962;2022-09-09T17:06:49;19.50;99.90
13336;DHT22;6737;51.480;11.962;2022-09-09T17:09:16;19.50;99.90
13336;DHT22;6737;51.480;11.962;2022-09-09T17:11:42;19.50;99.90
13336;DHT22;6737;51.480;11.962;2022-09-09T17:14:11;19.40;99.90
13336;DHT22;6737;51.480;11.962;2022-09-09T17:16:38;19.40;99.90
13336;DHT22;6737;51.480;11.962;2022-09-09T17:19:05;19.30;99.90
13336;DHT22;6737;51.480;11.962;2022-09-09T17:21:32;19.30;99.90
13336;DHT22;6737;51.480;11.962;2022-09-09T17:23:58;19.30;99.90
13336;DHT22;6737;51.480;11.962;2022-09-09T17:26:27;19.20;99.90
13336;DHT22;6737;51.480;11.962;2022-09-09T17:28:54;19.20;99.90
13336;DHT22;6737;51.480;11.962;2022-09-09T17:31:22;19.10;99.90
13336;DHT22;6737;51.480;11.962;2022-09-09T17:33:50;19.10;99.90
13336;DHT22;6737;51.480;11.962;2022-09-09T17:36:24;19.00;99.90
13336;DHT22;6737;51.480;11.962;2022-09-09T17:38:51;18.90;99.90
13336;DHT22;6737;51.480;11.962;2022-09-09T17:41:38;18.90;99.90